Time;durP1;ratioP1;P1;durP2;ratioP2;P2;SDS_P1;SDS_P2;PMS_P1;PMS_P2;Temp;Humidity;BMP_temperature;BMP_pressure;BME280_temperature;BME280_humidity;BME280_pressure;Samples;Min_cycle;Max_cycle;Signal;HPM_P1;HPM_P2
2021/05/03 00:01:59;;;;;;;8.77;5.33;;;;;;;4.95;76.13;99600.38;147485;1147;104566;-78
2021/05/03 00:05:03;;;;;;;7.03;4.57;;;;;;;5.00;75.90;99598.98;147717;1147;104579;-78
2021/05/03 00:08:06;;;;;;;6.05;4.58;;;;;;;4.99;75.99;99599.14;147744;1147;104572;-80
2021/05/03 00:11:09;;;;;;;6.57;4.67;;;;;;;5.00;75.84;99593.69;147386;1147;104557;-77
2021/05/03 00:14:12;;;;;;;5.92;4.40;;;;;;;5.02;75.87;99601.50;147458;1147;104508;-78
2021/05/03 00:17:15;;;;;;;7.67;4.97;;;;;;;4.91;76.37;99605.09;147430;1147;104476;-84
2021/05/03 00:20:18;;;;;;;7.90;4.42;;;;;;;4.92;75.69;99604.93;147625;1147;104609;-79
2021/05/03 00:23:21;;;;;;;6.10;4.40;;;;;;;5.00;76.02;99606.91;147567;1147;104438;-83
2021/05/03 00:26:25;;;;;;;6.00;4.17;;;;;;;4.98;75.88;99614.14;147503;1147;104462;-82
2021/05/03 00:29:28;;;;;;;6.13;4.50;;;;;;;5.03;75.93;99624.34;147355;1147;104503;-79
2021/05/03 00:32:31;;;;;;;6.90;4.22;;;;;;;4.99;75.50;99628.22;147399;1147;104928;-80
2021/05/03 00:35:35;;;;;;;6.12;4.47;;;;;;;4.83;75.84;99637.47;147343;1146;104614;-84
2021/05/03 00:38:38;;;;;;;6.87;4.43;;;;;;;4.72;76.01;99630.45;147505;1147;104559;-84
2021/05/03 00:41:41;;;;;;;6.90;4.40;;;;;;;4.73;76.11;99633.92;147799;1147;104511;-81
2021/05/03 00:44:44;;;;;;;8.03;4.63;;;;;;;4.82;76.09;99645.52;147834;1147;104569;-82
2021/05/03 00:47:47;;;;;;;5.70;3.93;;;;;;;4.84;76.08;99643.59;147851;1147;104476;-82
2021/05/03 00:50:52;;;;;;;6.67;4.65;;;;;;;4.83;76.14;99649.83;147785;1147;104566;-78
2021/05/03 00:53:55;;;;;;;6.30;4.30;;;;;;;4.76;76.20;99667.20;147684;1147;104475;-77
2021/05/03 00:56:58;;;;;;;6.27;4.70;;;;;;;4.65;76.20;99655.71;147432;1146;104578;-78
2021/05/03 01:00:02;;;;;;;5.50;4.03;;;;;;;4.62;76.30;99666.56;147644;1147;104482;-79
2021/05/03 01:03:06;;;;;;;6.22;4.58;;;;;;;4.65;76.43;99655.71;147500;1147;104453;-81
2021/05/03 01:06:09;;;;;;;5.87;4.25;;;;;;;4.71;76.14;99660.50;147322;1148;104591;-81
2021/05/03 01:09:12;;;;;;;5.97;4.37;;;;;;;4.78;76.18;99665.27;147695;1147;104608;-81
2021/05/03 01:12:16;;;;;;;6.70;4.80;;;;;;;4.85;76.00;99667.25;147443;1147;104569;-80
2021/05/03 01:15:23;;;;;;;6.87;4.62;;;;;;;4.84;75.83;99667.38;147471;1147;104450;-79
2021/05/03 01:18:28;;;;;;;5.70;4.70;;;;;;;4.78;76.15;99667.91;147552;1148;104483;-83
2021/05/03 01:21:32;;;;;;;6.70;4.53;;;;;;;4.76;75.93;99667.20;147676;1147;104543;-82
2021/05/03 01:24:35;;;;;;;8.03;4.90;;;;;;;4.80;75.85;99668.61;147697;1148;104544;-84
2021/05/03 01:27:38;;;;;;;10.50;7.03;;;;;;;4.90;75.93;99672.13;147655;1147;105196;-82
2021/05/03 01:30:43;;;;;;;7.55;4.42;;;;;;;4.99;75.63;99676.64;147549;1145;104442;-81
2021/05/03 01:33:46;;;;;;;5.87;4.10;;;;;;;5.06;75.16;99674.30;147582;1148;104480;-83
2021/05/03 01:36:49;;;;;;;5.08;4.10;;;;;;;5.07;75.44;99681.27;147787;1148;104525;-78
2021/05/03 01:39:53;;;;;;;7.20;4.67;;;;;;;5.07;75.30;99697.97;147497;1147;104459;-78
2021/05/03 01:42:56;;;;;;;6.80;4.25;;;;;;;5.05;75.37;99704.36;147560;1148;104479;-76
2021/05/03 01:46:01;;;;;;;6.12;4.45;;;;;;;4.96;75.00;99703.33;147753;1147;104583;-76
2021/05/03 01:49:07;;;;;;;7.00;4.53;;;;;;;4.93;75.44;99703.61;147726;1148;104591;-78
2021/05/03 01:52:12;;;;;;;8.75;5.08;;;;;;;4.97;75.62;99710.31;147733;1147;104620;-77
2021/05/03 01:55:17;;;;;;;5.70;4.17;;;;;;;5.05;75.33;99710.48;147778;1147;104447;-76
2021/05/03 01:58:21;;;;;;;7.30;4.97;;;;;;;5.03;75.34;99706.30;147754;1147;104505;-77
2021/05/03 02:01:25;;;;;;;6.47;4.70;;;;;;;4.95;75.18;99704.31;147617;1147;104481;-80
2021/05/03 02:04:28;;;;;;;6.55;5.03;;;;;;;4.91;76.07;99708.19;147618;1147;104482;-82
2021/05/03 02:07:31;;;;;;;7.25;4.45;;;;;;;4.86;75.10;99697.98;147710;1148;104620;-76
2021/05/03 02:10:35;;;;;;;10.90;5.28;;;;;;;4.84;75.48;99705.21;147753;1147;104567;-76
2021/05/03 02:13:39;;;;;;;5.53;4.27;;;;;;;4.87;75.29;99707.61;147436;1147;104498;-76
2021/05/03 02:16:43;;;;;;;6.30;4.65;;;;;;;4.84;75.05;99714.95;147328;1147;104572;-76
2021/05/03 02:19:46;;;;;;;6.53;4.45;;;;;;;4.78;75.34;99712.84;147470;1148;104435;-81
2021/05/03 02:22:50;;;;;;;6.37;4.05;;;;;;;4.81;75.40;99709.92;147493;1148;104647;-78
2021/05/03 02:25:54;;;;;;;7.67;5.10;;;;;;;4.83;75.49;99726.48;147678;1147;104489;-76
2021/05/03 02:28:57;;;;;;;5.92;4.20;;;;;;;4.76;75.25;99712.96;147391;1148;104572;-84
2021/05/03 02:32:00;;;;;;;10.10;4.80;;;;;;;4.72;75.36;99708.91;147665;1147;104510;-80
2021/05/03 02:35:04;;;;;;;4.90;3.90;;;;;;;4.77;74.93;99711.14;147259;1147;104483;-82
2021/05/03 02:38:09;;;;;;;6.15;4.28;;;;;;;4.85;75.37;99713.97;147252;1147;104634;-84
2021/05/03 02:41:12;;;;;;;5.92;3.95;;;;;;;4.88;75.12;99709.27;147734;1147;104486;-81
2021/05/03 02:44:16;;;;;;;7.97;4.35;;;;;;;4.92;75.04;99728.36;147603;1147;104582;-80
2021/05/03 02:47:19;;;;;;;6.22;4.62;;;;;;;4.92;74.91;99731.00;147325;1147;104572;-78
2021/05/03 02:50:24;;;;;;;9.95;4.60;;;;;;;4.90;75.04;99736.41;147760;1147;104472;-76
2021/05/03 02:53:27;;;;;;;6.87;4.60;;;;;;;4.86;74.92;99750.03;147771;1146;104515;-76
2021/05/03 02:56:30;;;;;;;8.58;4.45;;;;;;;4.89;75.28;99753.25;147398;1147;104588;-77
2021/05/03 02:59:33;;;;;;;5.45;3.80;;;;;;;4.89;74.95;99752.42;147277;1147;104569;-85
2021/05/03 03:02:36;;;;;;;6.37;4.05;;;;;;;4.97;74.65;99754.42;147319;1148;104953;-82
2021/05/03 03:05:39;;;;;;;9.08;6.75;;;;;;;5.03;74.68;99757.37;147360;1148;104476;-82
2021/05/03 03:08:42;;;;;;;7.87;4.37;;;;;;;5.01;74.99;99761.12;147207;1147;104639;-83
2021/05/03 03:11:47;;;;;;;6.95;3.80;;;;;;;4.98;74.85;99767.49;147443;1147;104569;-82
2021/05/03 03:14:50;;;;;;;5.28;3.90;;;;;;;4.91;74.90;99771.64;147458;1147;104450;-86
2021/05/03 03:17:54;;;;;;;6.77;4.40;;;;;;;4.90;75.09;99781.35;147547;1147;104581;-84
2021/05/03 03:20:57;;;;;;;5.77;3.57;;;;;;;4.98;74.82;99783.36;147595;1148;104572;-82
2021/05/03 03:24:01;;;;;;;5.78;4.03;;;;;;;5.03;74.82;99785.63;147498;1147;104636;-82
2021/05/03 03:27:05;;;;;;;6.33;3.60;;;;;;;5.08;75.22;99794.00;147484;1147;104565;-84
2021/05/03 03:30:12;;;;;;;9.25;4.15;;;;;;;5.11;74.69;99788.46;147498;1147;104569;-82
2021/05/03 03:33:15;;;;;;;7.80;4.33;;;;;;;5.14;74.87;99800.58;147347;1147;104457;-79
2021/05/03 03:36:18;;;;;;;6.17;4.03;;;;;;;5.18;74.73;99796.73;147575;1148;104918;-81
2021/05/03 03:39:21;;;;;;;5.30;3.52;;;;;;;5.17;74.60;99795.87;147785;1148;104432;-82
2021/05/03 03:42:24;;;;;;;8.77;4.80;;;;;;;5.15;74.64;99805.74;147589;1147;104567;-86
2021/05/03 03:45:27;;;;;;;6.93;3.80;;;;;;;5.19;74.78;99811.62;147605;1148;104575;-80
2021/05/03 03:48:30;;;;;;;6.00;3.60;;;;;;;5.21;74.37;99807.86;147642;1147;104802;-81
2021/05/03 03:51:34;;;;;;;6.47;3.47;;;;;;;5.24;74.36;99820.84;147551;1148;104474;-79
2021/05/03 03:54:37;;;;;;;6.33;4.00;;;;;;;5.28;74.72;99810.84;147519;1147;104540;-81
2021/05/03 03:57:40;;;;;;;6.15;3.60;;;;;;;5.35;74.33;99819.95;147513;1147;104522;-80
2021/05/03 04:00:43;;;;;;;7.00;4.10;;;;;;;5.38;74.14;99814.38;147325;1147;104515;-80
2021/05/03 04:03:48;;;;;;;6.73;4.30;;;;;;;5.40;74.12;99817.73;147629;1147;104572;-79
2021/05/03 04:06:55;;;;;;;5.00;3.42;;;;;;;5.43;73.93;99824.59;147716;1147;104900;-79
2021/05/03 04:10:05;;;;;;;6.00;3.63;;;;;;;5.44;73.98;99826.25;147765;1147;104623;-80
2021/05/03 04:13:35;;;;;;;4.87;3.65;;;;;;;5.43;73.93;99824.59;147729;1147;104572;-83
2021/05/03 04:23:47;;;;;;;6.77;4.37;;;;;;;5.68;73.95;99823.32;147667;1147;104504;-78
2021/05/03 04:26:50;;;;;;;5.53;4.03;;;;;;;5.66;73.84;99841.14;147633;1147;104627;-81
2021/05/03 04:29:53;;;;;;;10.65;4.30;;;;;;;5.68;73.07;99839.20;147710;1146;104533;-79
2021/05/03 04:32:56;;;;;;;6.07;4.20;;;;;;;5.67;73.11;99858.69;147393;1147;104580;-78
2021/05/03 04:36:01;;;;;;;6.58;4.50;;;;;;;5.68;73.75;99863.86;147427;1147;104476;-81
2021/05/03 04:39:05;;;;;;;6.30;4.12;;;;;;;5.62;73.12;99866.17;147773;1148;104570;-86
2021/05/03 04:42:09;;;;;;;7.22;4.30;;;;;;;5.62;72.88;99863.52;147644;1147;105552;-79
2021/05/03 04:45:14;;;;;;;8.93;5.00;;;;;;;5.64;73.59;99865.09;147353;1147;104467;-82
2021/05/03 04:48:17;;;;;;;8.88;5.20;;;;;;;5.72;73.26;99859.14;147441;1148;104831;-85
2021/05/03 04:51:20;;;;;;;6.03;4.90;;;;;;;5.80;72.65;99859.31;147705;1146;104451;-80
2021/05/03 04:54:23;;;;;;;7.70;6.00;;;;;;;5.87;73.08;99860.47;147359;1147;104572;-80
2021/05/03 04:57:26;;;;;;;8.43;5.83;;;;;;;5.90;73.12;99859.36;147790;1147;104633;-81
2021/05/03 05:00:29;;;;;;;7.00;5.07;;;;;;;5.89;72.68;99863.82;147355;1147;104487;-81
2021/05/03 05:03:32;;;;;;;6.55;5.10;;;;;;;5.90;72.70;99868.12;147623;1147;104447;-82
2021/05/03 05:06:36;;;;;;;6.60;4.70;;;;;;;6.00;72.60;99872.67;147616;1147;104575;-82
2021/05/03 05:09:39;;;;;;;7.65;4.25;;;;;;;6.18;71.82;99871.08;147768;1147;104569;-81
2021/05/03 05:12:42;;;;;;;7.03;4.53;;;;;;;6.37;72.56;99866.79;147756;1147;104618;-81
2021/05/03 05:15:45;;;;;;;7.35;4.95;;;;;;;6.53;72.82;99867.12;147849;1147;104851;-78
2021/05/03 05:18:49;;;;;;;6.33;4.47;;;;;;;6.65;70.83;99866.02;147680;1147;104592;-80
2021/05/03 05:21:53;;;;;;;5.77;3.90;;;;;;;6.80;71.94;99874.41;147656;1147;104479;-79
2021/05/03 05:24:56;;;;;;;7.33;4.53;;;;;;;6.91;72.08;99876.11;147709;1147;104588;-81
2021/05/03 05:27:59;;;;;;;5.75;4.10;;;;;;;7.00;71.01;99885.86;147750;1147;104538;-82
2021/05/03 05:31:02;;;;;;;9.43;4.80;;;;;;;7.11;71.44;99881.41;147449;1148;104546;-86
2021/05/03 05:34:05;;;;;;;7.47;5.25;;;;;;;7.22;70.70;99875.97;148030;1147;104487;-82
2021/05/03 05:37:08;;;;;;;7.10;4.90;;;;;;;7.36;71.10;99872.86;147751;1147;104443;-82
2021/05/03 05:40:14;;;;;;;7.30;4.03;;;;;;;7.47;70.85;99875.37;147948;1147;104457;-84
2021/05/03 05:43:17;;;;;;;7.22;3.58;;;;;;;7.63;71.22;99881.91;147932;1147;104522;-84
2021/05/03 05:46:20;;;;;;;7.83;3.77;;;;;;;7.78;69.23;99885.78;147629;1147;104682;-77
2021/05/03 05:49:23;;;;;;;5.33;3.90;;;;;;;7.96;70.38;99898.31;147687;1146;104549;-80
2021/05/03 05:52:26;;;;;;;5.87;3.63;;;;;;;8.01;68.99;99891.58;147803;1147;104572;-80
2021/05/03 05:55:29;;;;;;;6.13;3.67;;;;;;;8.14;69.90;99901.89;147786;1147;104456;-81
2021/05/03 05:58:33;;;;;;;7.03;3.22;;;;;;;8.22;69.22;99901.98;147828;1147;104662;-81
2021/05/03 06:01:36;;;;;;;9.10;6.50;;;;;;;8.28;67.51;99919.17;147806;1147;104953;-77
2021/05/03 06:04:39;;;;;;;17.77;11.88;;;;;;;8.33;69.43;99910.74;147235;1147;104982;-81
2021/05/03 06:07:42;;;;;;;9.80;4.87;;;;;;;8.41;68.29;99918.81;147598;1147;104613;-85
2021/05/03 06:10:45;;;;;;;9.00;5.95;;;;;;;8.26;67.43;99911.34;147783;1147;104572;-73
2021/05/03 06:13:48;;;;;;;14.45;10.13;;;;;;;8.26;68.71;99911.34;147698;1147;104643;-74
2021/05/03 06:16:51;;;;;;;13.00;8.67;;;;;;;8.20;65.97;99914.59;147776;1147;104479;-73
2021/05/03 06:19:54;;;;;;;27.93;17.13;;;;;;;8.31;67.76;99934.81;147724;1148;104483;-76
2021/05/03 06:23:02;;;;;;;9.63;5.50;;;;;;;8.23;66.22;99916.10;147031;1147;104917;-75
2021/05/03 06:26:05;;;;;;;34.85;21.20;;;;;;;8.29;67.02;99915.52;147284;1146;104614;-75
2021/05/03 06:29:08;;;;;;;16.95;9.50;;;;;;;8.31;66.58;99928.66;147712;1147;104646;-75
2021/05/03 06:32:11;;;;;;;9.60;5.60;;;;;;;8.38;67.80;99925.27;147755;1148;104483;-75
2021/05/03 06:35:14;;;;;;;15.78;8.65;;;;;;;8.49;66.09;99932.27;147711;1147;104495;-77
2021/05/03 06:38:21;;;;;;;14.65;8.15;;;;;;;8.61;66.80;99943.53;147616;1147;104563;-76
2021/05/03 06:41:24;;;;;;;7.83;5.00;;;;;;;8.65;65.37;99935.09;147349;1147;104572;-75
2021/05/03 06:44:28;;;;;;;12.58;7.08;;;;;;;8.59;65.11;99941.02;147756;1147;104608;-76
2021/05/03 06:47:31;;;;;;;6.58;4.37;;;;;;;8.64;63.76;99951.20;147843;1148;104490;-78
2021/05/03 06:50:35;;;;;;;14.00;5.78;;;;;;;8.62;65.36;99953.17;147698;1147;104492;-74
2021/05/03 06:53:38;;;;;;;7.30;4.35;;;;;;;8.67;65.19;99952.75;147606;1147;104690;-75
2021/05/03 06:56:41;;;;;;;14.07;6.10;;;;;;;8.69;64.25;99954.27;147683;1147;104564;-76
2021/05/03 06:59:44;;;;;;;7.60;4.23;;;;;;;8.65;63.44;99958.20;147434;1147;104652;-74
2021/05/03 07:02:47;;;;;;;7.15;3.95;;;;;;;8.63;62.26;99963.67;147711;1146;104578;-75
2021/05/03 07:05:50;;;;;;;4.92;3.77;;;;;;;8.51;62.76;99970.17;147716;1147;104556;-80
2021/05/03 07:08:53;;;;;;;90.53;45.85;;;;;;;8.42;63.56;99969.22;147290;1147;104483;-77
2021/05/03 07:11:57;;;;;;;103.83;51.17;;;;;;;8.58;63.77;99973.93;147598;1147;104473;-77
2021/05/03 07:15:00;;;;;;;19.55;11.25;;;;;;;8.58;63.62;99979.25;147898;1147;104625;-77
2021/05/03 07:18:04;;;;;;;13.25;7.00;;;;;;;8.61;63.83;99981.59;147843;1147;104546;-76
2021/05/03 07:21:07;;;;;;;8.35;5.78;;;;;;;8.53;62.34;99981.50;147773;1147;104847;-75
2021/05/03 07:24:12;;;;;;;9.03;5.67;;;;;;;8.38;63.68;99996.22;147796;1148;104991;-76
2021/05/03 07:27:15;;;;;;;11.88;7.37;;;;;;;8.30;64.27;99988.97;147698;1147;104511;-75
2021/05/03 07:30:19;;;;;;;11.53;7.60;;;;;;;8.30;63.50;99996.12;147705;1147;104481;-75
2021/05/03 07:33:23;;;;;;;6.43;4.70;;;;;;;8.16;62.13;100000.91;147713;1147;104582;-76
2021/05/03 07:36:26;;;;;;;7.40;5.22;;;;;;;8.13;61.88;100006.50;147678;1147;104578;-77
2021/05/03 07:39:29;;;;;;;9.80;4.73;;;;;;;8.12;61.44;100004.84;147502;1148;104533;-76
2021/05/03 07:42:32;;;;;;;7.93;5.60;;;;;;;7.98;61.33;100015.90;147337;1148;104588;-79
2021/05/03 07:45:35;;;;;;;6.60;5.15;;;;;;;7.93;63.60;100026.10;147674;1147;105024;-76
2021/05/03 07:48:38;;;;;;;23.20;15.10;;;;;;;7.81;62.00;100028.08;147716;1147;104483;-78
2021/05/03 07:51:41;;;;;;;8.83;6.17;;;;;;;7.85;63.42;100024.16;147596;1147;104560;-78
2021/05/03 07:54:44;;;;;;;8.07;5.27;;;;;;;7.85;62.58;100035.64;147473;1147;104575;-75
2021/05/03 07:57:48;;;;;;;8.10;5.90;;;;;;;8.00;62.55;100041.34;147769;1147;104576;-74
2021/05/03 08:00:51;;;;;;;10.10;7.70;;;;;;;8.10;63.02;100040.49;147852;1147;104553;-74
2021/05/03 08:03:54;;;;;;;10.20;5.70;;;;;;;8.16;62.24;100038.12;147765;1148;104559;-76
2021/05/03 08:06:59;;;;;;;6.78;5.03;;;;;;;8.14;63.52;100044.53;147412;1147;104572;-74
2021/05/03 08:10:03;;;;;;;10.10;6.30;;;;;;;8.03;62.43;100062.33;147713;1147;104580;-72
2021/05/03 08:13:06;;;;;;;6.53;4.47;;;;;;;8.09;63.35;100062.75;147776;1147;104495;-74
2021/05/03 08:16:12;;;;;;;9.43;6.10;;;;;;;8.11;63.39;100066.93;147544;1147;104609;-81
2021/05/03 08:19:15;;;;;;;6.78;3.80;;;;;;;8.42;62.98;100058.79;147626;1147;104690;-77
2021/05/03 08:22:18;;;;;;;5.17;3.65;;;;;;;8.45;60.24;100058.52;147767;1147;104495;-76
2021/05/03 08:25:22;;;;;;;5.60;4.05;;;;;;;8.49;62.49;100065.22;147768;1147;104578;-79
2021/05/03 08:28:25;;;;;;;5.30;3.15;;;;;;;8.50;61.60;100071.36;147778;1147;104685;-74
2021/05/03 08:31:28;;;;;;;22.30;12.03;;;;;;;8.55;59.34;100085.08;147811;1148;104611;-76
2021/05/03 08:34:32;;;;;;;8.40;5.17;;;;;;;8.51;57.03;100078.38;147801;1148;104454;-75
2021/05/03 08:37:35;;;;;;;4.17;2.90;;;;;;;8.65;57.93;100086.70;147295;1148;104575;-72
2021/05/03 08:40:38;;;;;;;5.17;2.60;;;;;;;8.70;59.78;100096.93;147583;1148;104535;-72
2021/05/03 08:43:42;;;;;;;3.90;2.50;;;;;;;8.49;58.05;100085.63;147723;1147;104477;-72
2021/05/03 08:46:46;;;;;;;3.50;2.60;;;;;;;8.42;58.15;100088.87;147689;1147;104629;-80
2021/05/03 08:49:55;;;;;;;4.10;2.77;;;;;;;8.58;59.99;100088.29;147665;1147;104478;-76
2021/05/03 08:52:58;;;;;;;3.90;2.98;;;;;;;8.84;61.96;100092.95;147730;1147;104581;-76
2021/05/03 08:56:02;;;;;;;5.12;3.35;;;;;;;9.17;59.90;100085.38;147727;1147;104575;-72
2021/05/03 08:59:06;;;;;;;3.67;2.75;;;;;;;9.37;59.69;100083.44;147766;1147;104476;-76
2021/05/03 09:02:11;;;;;;;4.50;3.00;;;;;;;9.41;59.31;100091.00;147729;1147;104622;-72
2021/05/03 09:05:16;;;;;;;2.80;2.30;;;;;;;9.50;57.10;100102.56;147355;1147;104568;-80
2021/05/03 09:08:27;;;;;;;4.87;3.37;;;;;;;9.57;56.88;100097.48;147511;1147;104572;-78
2021/05/03 09:11:30;;;;;;;2.60;2.03;;;;;;;9.72;57.85;100090.65;147372;1148;104473;-77
2021/05/03 09:14:34;;;;;;;4.17;2.40;;;;;;;9.95;56.81;100095.50;147697;1148;104549;-78
2021/05/03 09:17:38;;;;;;;7.30;3.40;;;;;;;10.02;58.76;100099.23;147706;1147;104624;-75
2021/05/03 09:20:42;;;;;;;6.50;4.35;;;;;;;9.78;54.54;100095.37;147707;1147;104568;-72
2021/05/03 09:24:07;;;;;;;7.08;5.22;;;;;;;9.49;55.75;100094.71;147186;1147;104579;-78
2021/05/03 09:27:11;;;;;;;4.80;3.33;;;;;;;9.83;59.99;100094.90;147499;1147;104567;-73
2021/05/03 09:30:30;;;;;;;4.73;3.33;;;;;;;10.27;59.29;100094.11;147705;1147;104938;-75
2021/05/03 09:33:35;;;;;;;6.95;4.22;;;;;;;10.54;59.47;100093.99;147626;1147;104945;-74
2021/05/03 09:36:38;;;;;;;5.70;3.70;;;;;;;10.57;58.28;100091.02;147319;1147;104569;-77
2021/05/03 09:39:41;;;;;;;4.10;3.60;;;;;;;10.41;59.22;100098.91;147218;1148;104570;-74
2021/05/03 09:42:56;;;;;;;4.73;3.33;;;;;;;10.31;59.43;100100.84;147495;1147;104470;-71
2021/05/03 09:45:59;;;;;;;5.80;4.35;;;;;;;10.24;55.82;100111.27;147518;1147;104906;-75
2021/05/03 09:49:05;;;;;;;5.97;4.20;;;;;;;10.18;58.92;100110.05;147118;1147;104624;-76
2021/05/03 09:52:10;;;;;;;6.35;4.28;;;;;;;10.41;60.06;100117.58;147719;1148;104566;-74
2021/05/03 09:55:34;;;;;;;7.00;4.40;;;;;;;10.68;59.16;100121.95;147696;1148;104560;-75
2021/05/03 09:58:41;;;;;;;5.53;3.93;;;;;;;10.59;59.60;100130.89;147794;1147;104581;-75
2021/05/03 10:02:00;;;;;;;9.00;5.83;;;;;;;10.36;59.82;100130.56;147728;1147;104488;-74
2021/05/03 10:05:09;;;;;;;5.97;4.30;;;;;;;10.36;60.18;100131.39;147544;1147;104731;-72
2021/05/03 10:08:12;;;;;;;7.05;5.50;;;;;;;10.57;59.97;100124.87;147590;1147;105013;-73
2021/05/03 10:11:17;;;;;;;6.33;4.33;;;;;;;10.44;60.11;100122.61;147450;1148;104486;-73
2021/05/03 10:14:21;;;;;;;5.03;3.47;;;;;;;10.45;59.27;100124.30;147176;1147;104944;-72
2021/05/03 10:17:24;;;;;;;5.87;4.30;;;;;;;10.53;60.28;100124.34;147488;1147;104477;-71
2021/05/03 10:20:27;;;;;;;13.30;8.90;;;;;;;10.51;60.04;100115.67;147396;1147;104812;-71
2021/05/03 10:23:31;;;;;;;10.85;5.70;;;;;;;10.52;58.98;100129.84;147630;1147;104572;-73
2021/05/03 10:26:35;;;;;;;6.65;4.75;;;;;;;10.23;59.18;100130.91;147324;1148;104476;-80
2021/05/03 10:29:41;;;;;;;6.17;4.62;;;;;;;9.87;60.24;100124.75;147808;1147;104546;-71
2021/05/03 10:32:57;;;;;;;7.42;4.85;;;;;;;9.59;61.18;100130.14;147842;1147;104901;-72
2021/05/03 10:36:00;;;;;;;11.70;6.33;;;;;;;9.55;61.50;100134.92;147772;1147;104610;-73
2021/05/03 10:39:38;;;;;;;6.67;4.08;;;;;;;9.76;61.64;100145.31;147545;1148;104604;-72
2021/05/03 10:43:15;;;;;;;4.65;3.30;;;;;;;9.93;59.89;100145.45;147440;1147;104575;-75
2021/05/03 10:50:03;;;;;;;5.00;3.83;;;;;;;9.87;59.47;100143.41;147505;1147;104572;-75
2021/05/03 10:53:33;;;;;;;4.57;3.30;;;;;;;9.91;60.56;100145.64;147540;1148;104553;-74
2021/05/03 10:56:41;;;;;;;10.05;8.08;;;;;;;9.97;60.25;100142.36;147755;1147;104453;-74
2021/05/03 10:59:52;;;;;;;6.42;4.30;;;;;;;9.92;60.46;100139.30;147774;1147;104570;-73
2021/05/03 11:02:56;;;;;;;3.70;2.85;;;;;;;9.89;59.46;100138.77;147703;1147;104634;-74
2021/05/03 11:05:59;;;;;;;3.93;3.03;;;;;;;9.79;60.96;100150.32;147750;1147;104562;-76
2021/05/03 11:09:30;;;;;;;2.83;2.10;;;;;;;9.85;60.33;100148.87;147741;1147;104515;-75
2021/05/03 11:12:34;;;;;;;3.45;2.05;;;;;;;9.90;60.48;100151.11;147725;1147;104491;-75
2021/05/03 11:15:37;;;;;;;3.67;3.00;;;;;;;10.00;60.99;100160.69;147740;1147;104457;-74
2021/05/03 11:18:42;;;;;;;6.72;3.75;;;;;;;10.25;60.18;100149.44;147735;1147;104485;-75
2021/05/03 11:21:49;;;;;;;3.47;2.70;;;;;;;10.50;60.64;100151.33;147649;1147;104463;-80
2021/05/03 11:24:55;;;;;;;4.40;2.72;;;;;;;10.59;58.38;100160.25;147412;1147;104575;-76
2021/05/03 11:28:06;;;;;;;4.35;2.45;;;;;;;10.55;59.13;100157.05;147345;1147;104466;-81
2021/05/03 11:31:17;;;;;;;9.53;5.33;;;;;;;10.70;60.31;100161.80;147327;1147;104969;-76
2021/05/03 11:34:24;;;;;;;3.27;2.77;;;;;;;10.92;59.21;100153.28;147775;1147;104489;-75
2021/05/03 11:37:32;;;;;;;5.30;2.95;;;;;;;11.07;59.76;100155.38;147439;1147;104575;-75
2021/05/03 11:40:57;;;;;;;5.03;3.30;;;;;;;11.14;57.89;100161.73;147578;1147;104895;-75
2021/05/03 11:44:14;;;;;;;15.63;7.35;;;;;;;11.07;58.39;100155.38;147749;1147;104486;-77
2021/05/03 11:47:25;;;;;;;5.95;3.75;;;;;;;11.06;58.83;100153.70;147748;1147;104458;-77
2021/05/03 11:50:29;;;;;;;8.75;5.20;;;;;;;11.05;56.10;100160.88;147757;1147;104470;-75
2021/05/03 11:53:43;;;;;;;5.25;3.35;;;;;;;10.99;58.20;100156.17;147723;1147;104470;-77
2021/05/03 11:56:53;;;;;;;3.85;3.35;;;;;;;11.31;57.42;100162.66;148223;1147;104607;-77
2021/05/03 12:00:05;;;;;;;3.77;3.22;;;;;;;11.47;58.21;100160.07;147794;1147;105094;-74
2021/05/03 12:03:11;;;;;;;;;;;;;;;11.55;57.69;100153.92;147767;1147;104470;-74
2021/05/03 12:06:36;;;;;;;5.90;3.77;;;;;;;11.55;57.10;100154.75;147456;1148;104480;-75
2021/05/03 12:09:39;;;;;;;7.90;5.62;;;;;;;11.40;57.16;100159.86;147722;1147;104451;-75
2021/05/03 12:12:46;;;;;;;4.65;3.60;;;;;;;11.38;58.40;100164.53;147781;1147;104572;-74
2021/05/03 12:15:50;;;;;;;5.43;3.87;;;;;;;11.56;58.49;100155.58;147797;1147;104482;-74
2021/05/03 12:18:53;;;;;;;6.67;4.37;;;;;;;11.66;58.41;100156.27;147882;1148;104439;-73
2021/05/03 12:22:02;;;;;;;10.93;6.90;;;;;;;11.34;57.35;100171.20;147788;1147;104940;-74
2021/05/03 12:25:09;;;;;;;6.17;4.43;;;;;;;11.18;57.31;100165.77;147810;1147;104947;-76
2021/05/03 12:28:13;;;;;;;5.70;3.93;;;;;;;11.02;56.48;100158.51;147884;1147;104532;-75
2021/05/03 12:31:17;;;;;;;7.12;4.10;;;;;;;10.92;58.28;100166.63;147757;1147;104567;-77
2021/05/03 12:34:22;;;;;;;11.22;4.60;;;;;;;11.07;57.52;100150.05;147680;1147;104573;-78
2021/05/03 12:37:29;;;;;;;8.23;4.27;;;;;;;11.27;57.28;100148.78;147730;1147;104585;-78
2021/05/03 12:40:36;;;;;;;6.47;4.28;;;;;;;11.49;58.06;100149.20;147790;1147;104956;-78
2021/05/03 12:43:40;;;;;;;8.13;3.98;;;;;;;11.59;56.69;100145.41;147829;1147;104585;-77
2021/05/03 12:46:44;;;;;;;8.10;4.58;;;;;;;11.69;55.96;100153.28;147761;1147;104571;-78
2021/05/03 12:49:58;;;;;;;8.90;4.50;;;;;;;11.54;56.44;100141.55;147376;1147;104466;-85
2021/05/03 12:53:10;;;;;;;4.33;3.08;;;;;;;11.46;55.62;100145.02;147719;1147;104451;-80
2021/05/03 12:56:19;;;;;;;4.45;3.52;;;;;;;11.29;56.55;100157.47;148002;1147;104598;-78
2021/05/03 12:59:26;;;;;;;9.85;7.37;;;;;;;11.12;56.45;100161.89;147822;1147;104521;-75
2021/05/03 13:02:33;;;;;;;8.43;4.50;;;;;;;11.18;56.30;100155.08;147778;1147;104489;-80
